Aktuell METAR/TAF ESNU/UME

270350Z AUTO 36010KT 9999 OVC008/// 06/05 Q1021=

270230Z 2703/2712 36009KT 9999 -RA SCT008 BKN015 TEMPO 2703/2708 3000 RA BKN008 BKN020CB TEMPO 2708/2712 BKN006=
Källa: Luftfartsverket (aro.lfv.se)